Time;durP1;ratioP1;P1;durP2;ratioP2;P2;SDS_P1;SDS_P2;PMS_P1;PMS_P2;Temp;Humidity;BMP_temperature;BMP_pressure;BME280_temperature;BME280_humidity;BME280_pressure;Samples;Min_cycle;Max_cycle;Signal;HPM_P1;HPM_P2
2023/07/26 00:00:51;;;;;;;12.97;11.77;;;16.10;99.90;;;;;;5072227;28;20195;-69
2023/07/26 00:03:17;;;;;;;12.13;11.10;;;16.30;99.90;;;;;;5072476;28;20198;-70
2023/07/26 00:05:42;;;;;;;14.93;13.70;;;16.30;99.90;;;;;;5072135;28;20434;-69
2023/07/26 00:08:08;;;;;;;14.43;13.20;;;16.20;99.90;;;;;;5072343;28;20196;-69
2023/07/26 00:10:34;;;;;;;13.63;12.43;;;16.20;99.90;;;;;;5072664;28;20574;-69
2023/07/26 00:12:59;;;;;;;14.43;13.13;;;16.00;99.90;;;;;;5072621;28;20544;-70
2023/07/26 00:15:25;;;;;;;13.23;12.03;;;16.20;99.90;;;;;;5072055;28;20185;-70
2023/07/26 00:17:50;;;;;;;14.77;13.47;;;16.00;99.90;;;;;;5072134;28;20176;-69
2023/07/26 00:20:16;;;;;;;17.47;14.70;;;15.90;99.90;;;;;;5081957;23;20228;-69
2023/07/26 00:22:41;;;;;;;16.30;14.60;;;16.00;99.90;;;;;;5059750;28;20281;-68
2023/07/26 00:25:07;;;;;;;14.47;13.27;;;16.10;99.90;;;;;;5062099;28;20168;-68
2023/07/26 00:27:34;;;;;;;18.47;14.10;;;16.20;99.90;;;;;;5060973;28;20230;-69
2023/07/26 00:29:59;;;;;;;13.43;11.40;;;16.20;99.90;;;;;;5065445;28;20165;-69
2023/07/26 00:32:25;;;;;;;16.97;15.47;;;16.30;99.90;;;;;;5066180;28;20556;-69
2023/07/26 00:34:51;;;;;;;13.53;12.23;;;16.30;99.90;;;;;;5064988;28;20215;-69
2023/07/26 00:37:16;;;;;;;13.70;12.33;;;16.30;99.90;;;;;;5067409;28;20255;-69
2023/07/26 00:39:43;;;;;;;14.70;13.37;;;16.40;99.90;;;;;;5065040;28;20656;-68
2023/07/26 00:42:08;;;;;;;16.87;15.27;;;16.40;99.90;;;;;;5066964;28;20189;-67
2023/07/26 00:44:34;;;;;;;16.53;15.03;;;16.10;99.90;;;;;;5064375;28;20410;-69
2023/07/26 00:46:59;;;;;;;15.10;13.70;;;16.30;99.90;;;;;;5066687;28;20167;-69
2023/07/26 00:49:26;;;;;;;14.10;12.80;;;16.40;99.90;;;;;;5065792;28;20175;-69
2023/07/26 00:51:52;;;;;;;14.50;13.27;;;16.40;99.90;;;;;;5068085;28;20235;-68
2023/07/26 00:54:20;;;;;;;14.63;13.33;;;16.30;99.90;;;;;;5060025;28;20402;-68
2023/07/26 00:56:46;;;;;;;13.80;12.40;;;16.40;99.90;;;;;;5066253;28;20173;-68
2023/07/26 00:59:12;;;;;;;15.37;13.97;;;16.40;99.90;;;;;;5066274;28;20913;-69
2023/07/26 01:01:39;;;;;;;15.27;13.70;;;16.50;99.90;;;;;;5064323;28;20199;-67
2023/07/26 01:04:05;;;;;;;14.43;13.03;;;16.40;99.90;;;;;;5066265;28;20818;-66
2023/07/26 01:06:56;;;;;;;13.60;12.40;;;16.50;99.90;;;;;;5065373;28;20947;-67
2023/07/26 01:09:51;;;;;;;13.87;12.37;;;16.30;99.90;;;;;;5063846;28;20944;-69
2023/07/26 01:12:20;;;;;;;14.00;12.80;;;16.30;99.90;;;;;;5065789;28;20408;-67
2023/07/26 01:14:57;;;;;;;11.73;10.70;;;16.40;99.90;;;;;;5064839;28;20442;-69
2023/07/26 01:17:22;;;;;;;13.00;11.70;;;16.50;99.90;;;;;;5065353;28;20398;-68
2023/07/26 01:19:48;;;;;;;13.70;12.30;;;16.40;99.90;;;;;;5063402;28;20400;-69
2023/07/26 01:22:14;;;;;;;12.80;11.70;;;16.30;99.90;;;;;;5067703;28;20244;-69
2023/07/26 01:24:39;;;;;;;14.23;12.77;;;16.50;99.90;;;;;;5065164;28;20562;-68
2023/07/26 01:27:05;;;;;;;11.20;10.20;;;16.50;99.90;;;;;;5066557;28;20169;-69
2023/07/26 01:29:31;;;;;;;11.47;10.57;;;16.50;99.90;;;;;;5063713;28;20163;-68
2023/07/26 01:31:57;;;;;;;10.67;9.47;;;16.60;99.90;;;;;;5064054;28;20222;-67
2023/07/26 01:34:23;;;;;;;12.07;10.90;;;16.40;99.90;;;;;;5065850;28;20632;-68
2023/07/26 01:36:51;;;;;;;12.73;11.60;;;16.30;99.90;;;;;;5063255;28;20411;-68
2023/07/26 01:39:18;;;;;;;11.83;10.73;;;16.30;99.90;;;;;;5066117;28;20401;-68
2023/07/26 01:41:45;;;;;;;10.93;9.93;;;16.30;99.90;;;;;;5063791;28;20456;-68
2023/07/26 01:44:12;;;;;;;9.97;8.97;;;16.30;99.90;;;;;;5065872;28;20446;-67
2023/07/26 01:46:37;;;;;;;8.10;7.30;;;16.30;99.90;;;;;;5063042;28;20426;-68
2023/07/26 01:49:03;;;;;;;10.10;9.10;;;16.30;99.90;;;;;;5065125;28;20410;-68
2023/07/26 01:51:28;;;;;;;9.30;8.50;;;16.40;99.90;;;;;;5059914;28;20179;-68
2023/07/26 01:53:54;;;;;;;9.87;8.63;;;16.30;99.90;;;;;;5063435;28;20244;-68
2023/07/26 01:56:20;;;;;;;9.17;8.37;;;16.20;99.90;;;;;;5066184;28;20175;-68
2023/07/26 01:58:45;;;;;;;9.27;8.47;;;16.20;99.90;;;;;;5064987;28;20173;-68
2023/07/26 02:01:11;;;;;;;8.17;6.63;;;16.10;99.90;;;;;;5064025;28;20244;-68
2023/07/26 02:03:36;;;;;;;7.20;6.60;;;16.00;99.90;;;;;;5064791;28;20191;-67
2023/07/26 02:06:02;;;;;;;8.50;7.70;;;16.00;99.90;;;;;;5059779;28;20209;-68
2023/07/26 02:08:28;;;;;;;7.73;7.03;;;16.00;99.90;;;;;;5066827;28;20639;-68
2023/07/26 02:10:53;;;;;;;6.33;5.83;;;16.00;99.90;;;;;;5062873;28;20209;-68
2023/07/26 02:13:19;;;;;;;6.50;5.90;;;16.10;99.90;;;;;;5066648;28;20674;-68
2023/07/26 02:15:46;;;;;;;7.73;7.03;;;16.20;99.90;;;;;;5062613;28;20195;-69
2023/07/26 02:18:12;;;;;;;6.93;6.30;;;16.20;99.90;;;;;;5065677;28;20172;-68
2023/07/26 02:20:37;;;;;;;6.70;6.00;;;16.20;99.90;;;;;;5060360;28;20449;-68
2023/07/26 02:23:03;;;;;;;7.00;6.40;;;16.10;99.90;;;;;;5061598;28;20185;-68
2023/07/26 02:25:29;;;;;;;7.20;6.50;;;16.20;99.90;;;;;;5065606;28;20166;-69
2023/07/26 02:27:54;;;;;;;6.47;5.87;;;16.10;99.90;;;;;;5061531;28;20188;-68
2023/07/26 02:30:20;;;;;;;5.90;5.40;;;16.10;99.90;;;;;;5064163;28;20217;-68
2023/07/26 02:32:45;;;;;;;7.30;5.33;;;16.00;99.90;;;;;;5064068;28;20173;-67
2023/07/26 02:35:11;;;;;;;5.90;5.40;;;16.00;99.90;;;;;;5062155;28;20216;-68
2023/07/26 02:37:36;;;;;;;6.67;6.00;;;16.00;99.90;;;;;;5063108;28;20180;-68
2023/07/26 02:40:02;;;;;;;6.47;5.50;;;15.90;99.90;;;;;;5064860;28;20195;-68
2023/07/26 02:42:28;;;;;;;6.00;5.50;;;15.80;99.90;;;;;;5061328;28;20186;-68
2023/07/26 02:44:55;;;;;;;6.67;6.07;;;15.80;99.90;;;;;;5063399;28;20531;-68
2023/07/26 02:47:21;;;;;;;7.47;5.10;;;15.80;99.90;;;;;;5062294;28;20417;-68
2023/07/26 02:49:46;;;;;;;6.53;5.83;;;15.90;99.90;;;;;;5061007;28;20405;-69
2023/07/26 02:52:12;;;;;;;6.53;5.90;;;15.80;99.90;;;;;;5064536;28;20286;-68
2023/07/26 02:54:38;;;;;;;7.47;5.70;;;15.90;99.90;;;;;;5062379;28;20252;-68
2023/07/26 02:57:04;;;;;;;8.93;6.23;;;15.90;99.90;;;;;;5064710;28;20167;-68
2023/07/26 02:59:29;;;;;;;5.70;5.20;;;15.80;99.90;;;;;;5062215;28;20235;-68
2023/07/26 03:01:55;;;;;;;7.07;6.37;;;15.70;99.90;;;;;;5063373;28;20933;-68
2023/07/26 03:04:20;;;;;;;6.63;5.33;;;15.60;99.90;;;;;;5061285;28;20198;-68
2023/07/26 03:06:46;;;;;;;6.37;5.77;;;15.70;99.90;;;;;;5063826;28;20170;-67
2023/07/26 03:09:12;;;;;;;5.30;4.77;;;15.70;99.90;;;;;;5063264;28;20658;-68
2023/07/26 03:11:37;;;;;;;6.00;5.50;;;15.90;99.90;;;;;;5061884;28;20194;-68
2023/07/26 03:14:03;;;;;;;6.70;5.57;;;15.90;99.90;;;;;;5061600;28;20213;-68
2023/07/26 03:16:29;;;;;;;5.60;5.13;;;15.90;99.90;;;;;;5062808;28;20177;-68
2023/07/26 03:18:54;;;;;;;5.10;4.60;;;15.80;99.90;;;;;;5060433;28;20215;-67
2023/07/26 03:21:20;;;;;;;5.50;4.80;;;15.90;99.90;;;;;;5063688;28;20208;-67
2023/07/26 03:23:46;;;;;;;5.63;5.13;;;15.90;99.90;;;;;;5063099;28;20199;-68
2023/07/26 03:26:12;;;;;;;5.47;4.97;;;15.80;99.90;;;;;;5063872;28;20627;-69
2023/07/26 03:28:38;;;;;;;8.00;6.00;;;15.80;99.90;;;;;;5061454;28;20253;-68
2023/07/26 03:31:04;;;;;;;6.77;5.10;;;15.70;99.90;;;;;;5063303;28;20432;-69
2023/07/26 03:33:29;;;;;;;5.90;5.27;;;15.80;99.90;;;;;;5061284;28;20981;-68
2023/07/26 03:35:55;;;;;;;6.33;5.83;;;15.70;99.90;;;;;;5063816;28;20179;-68
2023/07/26 03:38:20;;;;;;;5.93;5.53;;;15.80;99.90;;;;;;5061769;28;20201;-68
2023/07/26 03:40:46;;;;;;;4.90;4.50;;;15.80;99.90;;;;;;5062047;28;20203;-69
2023/07/26 03:43:11;;;;;;;6.57;5.87;;;15.70;99.90;;;;;;5060452;28;20210;-68
2023/07/26 03:45:37;;;;;;;7.70;5.10;;;15.60;99.90;;;;;;5063651;28;20172;-68
2023/07/26 03:48:03;;;;;;;5.30;4.80;;;15.50;99.90;;;;;;5059475;28;20167;-68
2023/07/26 03:50:29;;;;;;;5.37;4.87;;;15.50;99.90;;;;;;5063683;28;20218;-68
2023/07/26 03:52:54;;;;;;;6.43;5.87;;;15.50;99.90;;;;;;5063199;28;20167;-69
2023/07/26 03:55:20;;;;;;;5.33;4.83;;;15.20;99.90;;;;;;5062177;28;20596;-68
2023/07/26 03:57:45;;;;;;;6.03;5.50;;;15.30;99.90;;;;;;5058292;28;20177;-68
2023/07/26 04:00:11;;;;;;;9.73;6.40;;;15.30;99.90;;;;;;5063688;28;20189;-68
2023/07/26 04:02:37;;;;;;;7.10;6.40;;;15.20;99.90;;;;;;5060742;28;20189;-68
2023/07/26 04:05:03;;;;;;;7.07;6.37;;;15.10;99.90;;;;;;5064790;28;20409;-68
2023/07/26 04:07:28;;;;;;;7.07;6.47;;;15.20;99.90;;;;;;5060397;28;20171;-68
2023/07/26 04:09:54;;;;;;;6.80;6.20;;;15.20;99.90;;;;;;5065757;28;20169;-67
2023/07/26 04:12:19;;;;;;;6.70;5.97;;;15.20;99.90;;;;;;5069001;28;20174;-68
2023/07/26 04:14:45;;;;;;;6.63;6.00;;;15.30;99.90;;;;;;5064992;28;20167;-67
2023/07/26 04:17:10;;;;;;;5.50;5.03;;;15.40;99.90;;;;;;5067563;28;20185;-68
2023/07/26 04:19:36;;;;;;;4.80;4.43;;;15.40;99.90;;;;;;5064188;28;20181;-68
2023/07/26 04:22:02;;;;;;;5.17;4.67;;;15.40;99.90;;;;;;5066826;28;20284;-68
2023/07/26 04:24:27;;;;;;;6.03;4.93;;;15.40;99.90;;;;;;5064876;28;20177;-68
2023/07/26 04:26:53;;;;;;;6.00;4.83;;;15.50;99.90;;;;;;5066163;28;20197;-68
2023/07/26 04:29:19;;;;;;;6.00;5.30;;;15.60;99.90;;;;;;5065049;28;20178;-68
2023/07/26 04:31:44;;;;;;;5.53;5.00;;;15.70;99.90;;;;;;5049581;28;20197;-68
2023/07/26 04:34:12;;;;;;;6.63;5.40;;;15.70;99.90;;;;;;5065811;28;20176;-69
2023/07/26 04:36:38;;;;;;;5.43;4.97;;;15.70;99.90;;;;;;5064951;28;20178;-68
2023/07/26 04:39:03;;;;;;;5.73;5.20;;;15.70;99.90;;;;;;5067417;28;20407;-68
2023/07/26 04:41:29;;;;;;;6.63;5.93;;;15.60;99.90;;;;;;5064938;28;20232;-68
2023/07/26 04:43:55;;;;;;;6.60;6.00;;;15.70;99.90;;;;;;5064636;28;20193;-69
2023/07/26 04:46:20;;;;;;;5.03;4.63;;;15.70;99.90;;;;;;5064321;28;20174;-68
2023/07/26 04:48:46;;;;;;;5.57;5.10;;;15.80;99.90;;;;;;5063539;28;20165;-68
2023/07/26 04:51:12;;;;;;;6.33;5.87;;;15.80;99.90;;;;;;5065163;28;20188;-68
2023/07/26 04:53:38;;;;;;;9.63;7.07;;;15.90;99.90;;;;;;5065474;28;20774;-68
2023/07/26 04:56:04;;;;;;;5.53;5.03;;;15.90;99.90;;;;;;5067004;28;20647;-68
2023/07/26 04:58:29;;;;;;;4.43;4.13;;;16.00;99.90;;;;;;5065442;28;20229;-68
2023/07/26 05:00:55;;;;;;;5.23;4.83;;;16.00;99.90;;;;;;5064512;28;20194;-69
2023/07/26 05:03:20;;;;;;;5.50;5.07;;;16.10;99.90;;;;;;5064571;28;20225;-68
2023/07/26 05:05:52;;;;;;;5.03;4.73;;;16.10;99.90;;;;;;5066947;28;20241;-69
2023/07/26 05:08:18;;;;;;;5.43;4.93;;;16.20;99.90;;;;;;5070691;28;20178;-69
2023/07/26 05:10:49;;;;;;;5.47;5.07;;;16.20;99.90;;;;;;5066848;28;20516;-70
2023/07/26 05:13:14;;;;;;;7.07;5.47;;;16.20;99.90;;;;;;5064392;28;20459;-69
2023/07/26 05:15:40;;;;;;;5.30;4.60;;;16.20;99.90;;;;;;5065678;28;20539;-69
2023/07/26 05:18:05;;;;;;;6.17;5.67;;;16.20;99.90;;;;;;5063182;28;20180;-69
2023/07/26 05:20:31;;;;;;;5.53;5.03;;;16.20;99.90;;;;;;5065947;28;20203;-69
2023/07/26 05:22:56;;;;;;;7.40;6.23;;;16.10;99.90;;;;;;5063092;28;20187;-69
2023/07/26 05:25:22;;;;;;;8.60;5.33;;;16.20;99.90;;;;;;5065082;28;20174;-69
2023/07/26 05:27:48;;;;;;;6.07;5.33;;;16.10;99.90;;;;;;5063509;28;20174;-69
2023/07/26 05:30:15;;;;;;;8.67;5.17;;;16.00;99.90;;;;;;5065982;28;20202;-69
2023/07/26 05:32:40;;;;;;;5.27;4.80;;;16.00;99.90;;;;;;5062295;28;20168;-68
2023/07/26 05:35:06;;;;;;;5.00;4.50;;;16.00;99.90;;;;;;5065682;28;20412;-69
2023/07/26 05:37:34;;;;;;;4.47;4.07;;;16.00;99.90;;;;;;5063169;28;20261;-69
2023/07/26 05:40:00;;;;;;;6.27;4.67;;;16.20;99.90;;;;;;5065496;28;20487;-67
2023/07/26 05:42:25;;;;;;;5.87;4.80;;;16.10;99.90;;;;;;5062134;28;20553;-67
2023/07/26 05:44:51;;;;;;;5.10;4.63;;;16.00;99.90;;;;;;5060094;28;20166;-69
2023/07/26 05:47:17;;;;;;;9.73;6.30;;;16.20;99.90;;;;;;5062956;28;20173;-69
2023/07/26 05:49:43;;;;;;;5.63;5.10;;;16.30;99.90;;;;;;5061983;28;20167;-69
2023/07/26 05:52:09;;;;;;;5.77;5.20;;;16.30;99.90;;;;;;5064829;28;20568;-69
2023/07/26 05:54:35;;;;;;;5.30;4.80;;;16.30;99.90;;;;;;5063087;28;20414;-68
2023/07/26 05:57:01;;;;;;;6.00;5.57;;;16.30;99.90;;;;;;5064959;28;20459;-69
2023/07/26 05:59:27;;;;;;;5.00;4.20;;;16.50;99.90;;;;;;5065559;28;20484;-70
2023/07/26 06:01:52;;;;;;;5.17;4.67;;;16.60;99.90;;;;;;5062853;28;20188;-68
2023/07/26 06:04:18;;;;;;;7.30;4.70;;;16.70;99.90;;;;;;5063063;28;20201;-69
2023/07/26 06:06:44;;;;;;;5.50;5.10;;;16.70;99.90;;;;;;5064309;28;20172;-69
2023/07/26 06:09:09;;;;;;;5.73;4.87;;;16.60;99.90;;;;;;5065915;28;20203;-69
2023/07/26 06:11:35;;;;;;;6.10;4.67;;;16.70;99.90;;;;;;5059078;28;20620;-69
2023/07/26 06:14:00;;;;;;;5.37;4.87;;;16.80;99.90;;;;;;5064473;28;20177;-68
2023/07/26 06:16:27;;;;;;;5.50;5.10;;;16.80;99.90;;;;;;5065658;28;20253;-69
2023/07/26 06:18:52;;;;;;;5.93;5.33;;;16.70;99.90;;;;;;5061146;28;20239;-69
2023/07/26 06:21:19;;;;;;;6.30;4.83;;;16.70;99.90;;;;;;5064485;28;20475;-68
2023/07/26 06:23:45;;;;;;;5.30;4.40;;;16.80;99.90;;;;;;5062447;28;20196;-68
2023/07/26 06:26:11;;;;;;;5.07;4.60;;;16.60;99.90;;;;;;5064124;28;20445;-68
2023/07/26 06:28:36;;;;;;;6.57;4.60;;;16.90;99.90;;;;;;5063762;28;20933;-67
2023/07/26 06:31:02;;;;;;;5.03;4.60;;;17.10;99.90;;;;;;5064550;28;20195;-68
2023/07/26 06:33:28;;;;;;;4.50;4.10;;;17.40;99.90;;;;;;5065569;28;20247;-68
2023/07/26 06:35:54;;;;;;;4.43;4.03;;;17.20;99.90;;;;;;5062987;28;20263;-68
2023/07/26 06:38:20;;;;;;;4.63;4.13;;;17.40;99.90;;;;;;5063512;28;20186;-68
2023/07/26 06:40:46;;;;;;;3.93;3.57;;;17.50;99.90;;;;;;5061198;28;21056;-68
2023/07/26 06:43:12;;;;;;;4.90;4.37;;;17.50;99.90;;;;;;5062572;28;20198;-68
2023/07/26 06:45:37;;;;;;;6.57;4.07;;;17.60;99.90;;;;;;5063952;28;20403;-68
2023/07/26 06:48:03;;;;;;;4.20;3.90;;;17.40;99.90;;;;;;5063105;28;20187;-68
2023/07/26 06:50:29;;;;;;;5.30;4.23;;;17.30;99.90;;;;;;5062009;28;20194;-68
2023/07/26 06:52:54;;;;;;;4.80;4.40;;;17.40;99.90;;;;;;5061950;28;20224;-68
2023/07/26 06:55:20;;;;;;;7.30;4.47;;;17.40;99.90;;;;;;5062378;28;20177;-68
2023/07/26 06:57:46;;;;;;;4.60;4.30;;;17.30;99.90;;;;;;5064869;28;20216;-66
2023/07/26 07:00:14;;;;;;;5.23;4.10;;;17.30;99.90;;;;;;5062731;28;20192;-67
2023/07/26 07:02:40;;;;;;;6.43;4.30;;;17.30;99.90;;;;;;5063543;28;20578;-67
2023/07/26 07:05:06;;;;;;;6.60;5.17;;;17.30;99.90;;;;;;5060507;28;20418;-68
2023/07/26 07:07:31;;;;;;;6.33;4.77;;;17.10;99.90;;;;;;5064336;28;20192;-68
2023/07/26 07:09:57;;;;;;;5.07;4.53;;;17.00;99.90;;;;;;5064054;28;20775;-68
2023/07/26 07:12:23;;;;;;;5.00;4.60;;;16.90;99.90;;;;;;5064473;28;20196;-69
2023/07/26 07:14:48;;;;;;;4.83;3.90;;;17.00;99.90;;;;;;5060302;28;20169;-68
2023/07/26 07:17:14;;;;;;;4.30;3.90;;;17.10;99.90;;;;;;5063294;28;20174;-66
2023/07/26 07:19:39;;;;;;;5.50;5.10;;;17.20;99.90;;;;;;5064691;28;20195;-69
2023/07/26 07:22:05;;;;;;;6.03;5.50;;;17.10;99.90;;;;;;5061499;28;20913;-71
2023/07/26 07:24:33;;;;;;;4.90;4.50;;;16.90;99.90;;;;;;5063762;28;20236;-69
2023/07/26 07:26:59;;;;;;;4.97;4.47;;;17.10;99.90;;;;;;5063201;28;20516;-69
2023/07/26 07:29:24;;;;;;;10.13;4.90;;;17.10;99.90;;;;;;5064121;28;20461;-70
2023/07/26 07:31:50;;;;;;;6.10;5.50;;;16.90;99.90;;;;;;5061827;28;20200;-69
2023/07/26 07:34:15;;;;;;;8.63;5.60;;;16.80;99.90;;;;;;5062598;28;20232;-70
2023/07/26 07:36:41;;;;;;;8.80;6.13;;;16.70;99.90;;;;;;5064136;28;20233;-69
2023/07/26 07:39:09;;;;;;;7.03;5.07;;;16.70;99.90;;;;;;5056671;28;20631;-69
2023/07/26 07:41:36;;;;;;;6.70;6.00;;;16.80;99.90;;;;;;5062876;28;20221;-74
2023/07/26 07:44:01;;;;;;;5.80;5.30;;;17.00;99.90;;;;;;5059473;28;20808;-70
2023/07/26 07:46:28;;;;;;;6.80;6.20;;;17.00;99.90;;;;;;5062551;28;20415;-68
2023/07/26 07:48:55;;;;;;;7.10;5.10;;;17.10;99.90;;;;;;5062538;28;20172;-69
2023/07/26 07:51:20;;;;;;;5.77;5.37;;;17.10;99.90;;;;;;5061058;28;20437;-70
2023/07/26 07:53:48;;;;;;;6.10;5.60;;;17.20;99.90;;;;;;5063700;28;20811;-69
2023/07/26 07:56:14;;;;;;;8.60;4.93;;;17.30;99.90;;;;;;5056912;28;20174;-69
2023/07/26 07:58:39;;;;;;;8.27;6.67;;;17.20;99.90;;;;;;5062488;28;20407;-70
2023/07/26 08:01:05;;;;;;;5.27;4.77;;;17.10;99.90;;;;;;5062351;28;20281;-68
2023/07/26 08:03:31;;;;;;;5.10;4.60;;;16.90;99.90;;;;;;5063719;28;20283;-69
2023/07/26 08:05:57;;;;;;;7.10;5.83;;;17.00;99.90;;;;;;5061618;28;20165;-69
2023/07/26 08:08:23;;;;;;;5.90;4.80;;;16.70;99.90;;;;;;5061507;28;20454;-70
2023/07/26 08:10:48;;;;;;;4.97;4.57;;;16.70;99.90;;;;;;5064154;28;20237;-70
2023/07/26 08:13:14;;;;;;;6.40;6.00;;;16.90;99.90;;;;;;5059763;28;20173;-70
2023/07/26 08:15:40;;;;;;;6.27;5.03;;;17.00;99.90;;;;;;5062063;28;20400;-70
2023/07/26 08:18:06;;;;;;;7.80;5.13;;;17.10;99.90;;;;;;5063910;28;20309;-71
2023/07/26 08:20:32;;;;;;;5.40;4.90;;;17.10;99.90;;;;;;5054785;28;20383;-70
2023/07/26 08:22:58;;;;;;;6.20;5.00;;;17.10;99.90;;;;;;5058730;28;20864;-70
2023/07/26 08:25:24;;;;;;;4.93;4.43;;;17.10;99.90;;;;;;5063510;28;20407;-71
2023/07/26 08:27:50;;;;;;;5.57;5.17;;;16.80;99.90;;;;;;5060970;28;20536;-70
2023/07/26 08:30:15;;;;;;;7.27;4.60;;;16.60;99.90;;;;;;5061354;28;20427;-69
2023/07/26 08:32:41;;;;;;;4.53;4.10;;;16.30;99.90;;;;;;5061088;28;20665;-69
2023/07/26 08:35:07;;;;;;;5.93;4.00;;;16.20;99.90;;;;;;5063744;28;20168;-70
2023/07/26 08:37:32;;;;;;;4.70;4.20;;;16.40;99.90;;;;;;5062338;28;20175;-77
2023/07/26 08:39:58;;;;;;;4.50;4.13;;;16.80;99.90;;;;;;5062934;28;20175;-69
2023/07/26 08:42:23;;;;;;;4.77;3.57;;;17.00;99.90;;;;;;5057747;28;20178;-69
2023/07/26 08:44:50;;;;;;;3.30;2.63;;;17.00;99.90;;;;;;5062421;28;20655;-68
2023/07/26 08:47:17;;;;;;;6.33;3.00;;;16.80;99.90;;;;;;5062228;28;20175;-70
2023/07/26 08:49:43;;;;;;;2.60;2.40;;;17.10;99.90;;;;;;5064274;28;20407;-72
2023/07/26 08:52:09;;;;;;;2.83;2.40;;;17.70;99.90;;;;;;5063883;28;20432;-69
2023/07/26 08:54:35;;;;;;;2.60;2.40;;;17.90;99.90;;;;;;5066065;28;20413;-70
2023/07/26 08:57:01;;;;;;;2.63;2.10;;;18.20;99.90;;;;;;5066835;28;20408;-72
2023/07/26 08:59:27;;;;;;;8.37;3.03;;;18.20;99.90;;;;;;5067135;28;20412;-71
2023/07/26 09:01:54;;;;;;;4.60;2.10;;;18.30;99.90;;;;;;5064826;28;20503;-73
2023/07/26 09:04:22;;;;;;;2.70;1.90;;;18.00;99.90;;;;;;5065483;28;20244;-73
2023/07/26 09:06:48;;;;;;;2.20;2.00;;;18.00;99.90;;;;;;5067043;28;20764;-71
2023/07/26 09:09:14;;;;;;;2.17;1.50;;;17.90;99.90;;;;;;5063713;28;20439;-71
2023/07/26 09:11:49;;;;;;;2.27;1.23;;;17.90;99.90;;;;;;5065016;28;20427;-71
2023/07/26 09:14:15;;;;;;;2.30;1.40;;;18.00;99.90;;;;;;5061879;28;20746;-72
2023/07/26 09:16:41;;;;;;;1.87;1.30;;;18.30;99.90;;;;;;5064477;28;20401;-72
2023/07/26 09:19:07;;;;;;;1.30;1.10;;;18.30;99.90;;;;;;5066925;28;20754;-70
2023/07/26 09:21:34;;;;;;;2.57;1.10;;;17.90;99.90;;;;;;5064437;28;20607;-68
2023/07/26 09:24:01;;;;;;;3.00;1.30;;;17.70;99.90;;;;;;5065267;28;20202;-67
2023/07/26 09:26:39;;;;;;;2.23;1.53;;;17.70;99.90;;;;;;5063926;28;20433;-67
2023/07/26 09:29:11;;;;;;;1.53;1.17;;;18.00;99.90;;;;;;5061599;28;20467;-68
2023/07/26 09:31:38;;;;;;;1.30;1.20;;;17.50;99.90;;;;;;5060513;28;20520;-68
2023/07/26 09:34:07;;;;;;;1.83;1.23;;;17.30;99.90;;;;;;5059676;28;20478;-67
2023/07/26 09:36:45;;;;;;;2.70;1.70;;;17.40;99.90;;;;;;5065341;28;20416;-70
2023/07/26 09:39:12;;;;;;;1.50;1.30;;;17.40;99.90;;;;;;5065489;28;20779;-70
2023/07/26 09:41:38;;;;;;;1.30;1.20;;;17.50;99.90;;;;;;5063454;28;20468;-69
2023/07/26 09:44:05;;;;;;;1.43;1.03;;;17.80;99.90;;;;;;5060893;28;20992;-70
2023/07/26 09:46:52;;;;;;;1.87;1.20;;;17.90;99.90;;;;;;5063783;28;20806;-70
2023/07/26 09:49:19;;;;;;;2.60;1.27;;;17.80;99.90;;;;;;5061766;28;20482;-70
2023/07/26 09:51:45;;;;;;;1.30;1.20;;;18.00;99.90;;;;;;5063399;28;20687;-69
2023/07/26 09:54:11;;;;;;;1.73;1.13;;;17.90;99.90;;;;;;5065233;28;20409;-69
2023/07/26 09:56:40;;;;;;;1.80;1.30;;;17.50;99.90;;;;;;5065006;28;20648;-70
2023/07/26 09:59:10;;;;;;;2.30;1.60;;;17.40;99.90;;;;;;5062739;28;20449;-70
2023/07/26 10:01:44;;;;;;;3.07;1.40;;;17.60;99.90;;;;;;5062221;28;20775;-70
2023/07/26 10:04:16;;;;;;;1.57;1.43;;;17.70;99.90;;;;;;5059058;28;20449;-71
2023/07/26 10:06:43;;;;;;;2.03;1.60;;;17.80;99.90;;;;;;5059038;28;20401;-69
2023/07/26 10:09:13;;;;;;;1.77;1.30;;;18.40;99.90;;;;;;5064814;28;20413;-70
2023/07/26 10:11:41;;;;;;;2.23;1.67;;;18.50;99.90;;;;;;5062899;28;20420;-70
2023/07/26 10:14:12;;;;;;;1.73;1.40;;;18.70;99.90;;;;;;5060876;28;20523;-68
2023/07/26 10:16:38;;;;;;;2.40;1.50;;;18.80;99.90;;;;;;5061084;28;20775;-72
2023/07/26 10:19:06;;;;;;;2.10;1.23;;;18.80;99.90;;;;;;5065763;28;20408;-74
2023/07/26 10:21:32;;;;;;;2.33;1.93;;;19.00;99.90;;;;;;5063930;28;20453;-70
2023/07/26 10:24:02;;;;;;;2.03;1.93;;;19.00;99.90;;;;;;5064775;28;20535;-68
2023/07/26 10:26:31;;;;;;;6.10;1.77;;;18.50;99.90;;;;;;5062530;28;20431;-69
2023/07/26 10:28:59;;;;;;;1.80;1.67;;;18.10;99.90;;;;;;5058424;28;20405;-69
2023/07/26 10:31:27;;;;;;;1.93;1.70;;;17.90;99.90;;;;;;5063817;28;20527;-70
2023/07/26 10:33:56;;;;;;;1.20;1.10;;;17.60;99.90;;;;;;5063503;28;20408;-69
2023/07/26 10:36:29;;;;;;;4.57;2.00;;;17.50;99.90;;;;;;5065130;28;20494;-69
2023/07/26 10:38:55;;;;;;;2.50;1.57;;;17.70;99.90;;;;;;5062484;28;20409;-70
2023/07/26 10:41:27;;;;;;;2.37;1.60;;;17.70;99.90;;;;;;5064927;28;20515;-70
2023/07/26 10:44:07;;;;;;;1.90;1.50;;;17.80;99.90;;;;;;5060058;28;20524;-71
2023/07/26 10:47:00;;;;;;;2.47;1.80;;;17.90;99.90;;;;;;5057937;28;20433;-70
2023/07/26 10:49:28;;;;;;;3.47;2.17;;;18.20;99.90;;;;;;5061451;28;20431;-70
2023/07/26 10:51:57;;;;;;;2.77;2.23;;;18.70;99.90;;;;;;5064765;28;20908;-71
2023/07/26 10:54:37;;;;;;;2.57;1.60;;;19.00;99.90;;;;;;5062372;28;20405;-71
2023/07/26 10:57:15;;;;;;;2.00;1.90;;;19.30;99.90;;;;;;5058990;28;20401;-69
2023/07/26 11:00:04;;;;;;;3.27;1.77;;;19.20;99.90;;;;;;5061772;28;20453;-71
2023/07/26 11:02:37;;;;;;;2.40;2.20;;;18.90;99.90;;;;;;5063926;28;20935;-71
2023/07/26 11:05:07;;;;;;;2.10;1.80;;;19.00;99.90;;;;;;5062575;28;20396;-70
2023/07/26 11:07:59;;;;;;;5.30;2.17;;;19.30;99.90;;;;;;5063002;28;20393;-71
2023/07/26 11:10:29;;;;;;;3.97;2.33;;;19.50;99.90;;;;;;5057901;28;20451;-71
2023/07/26 11:13:18;;;;;;;2.13;1.50;;;20.00;99.90;;;;;;5061671;28;20396;-71
2023/07/26 11:15:45;;;;;;;2.63;1.90;;;20.50;99.90;;;;;;5059360;28;20487;-72
2023/07/26 11:18:12;;;;;;;2.10;1.80;;;20.60;99.90;;;;;;5062390;28;20421;-70
2023/07/26 11:20:48;;;;;;;2.40;1.53;;;20.90;99.90;;;;;;5064029;28;20441;-70
2023/07/26 11:23:18;;;;;;;2.20;1.73;;;20.90;99.90;;;;;;5061449;28;20444;-70
2023/07/26 11:25:48;;;;;;;2.73;2.03;;;21.00;99.90;;;;;;5062898;28;20393;-70
2023/07/26 11:28:15;;;;;;;1.67;1.57;;;21.00;99.90;;;;;;5063179;28;20867;-70
2023/07/26 11:30:49;;;;;;;2.10;1.90;;;20.90;99.90;;;;;;5064475;28;20421;-71
2023/07/26 11:33:27;;;;;;;1.97;1.77;;;20.90;99.90;;;;;;5057821;28;20417;-70
2023/07/26 11:35:53;;;;;;;3.20;1.70;;;21.00;99.90;;;;;;5058331;28;20412;-70
2023/07/26 11:38:19;;;;;;;2.20;1.57;;;21.50;99.90;;;;;;5064015;28;20404;-71
2023/07/26 11:40:45;;;;;;;2.00;1.70;;;22.10;99.90;;;;;;5061860;28;20273;-70
2023/07/26 11:43:10;;;;;;;2.57;1.90;;;23.10;99.90;;;;;;5061901;28;20194;-68
2023/07/26 11:45:37;;;;;;;5.80;1.90;;;23.00;99.90;;;;;;5061306;28;20217;-72
2023/07/26 11:48:09;;;;;;;1.60;1.50;;;24.20;99.10;;;;;;5061546;28;20575;-72
2023/07/26 11:50:37;;;;;;;3.40;2.17;;;25.40;96.20;;;;;;5063236;28;20813;-72
2023/07/26 11:53:10;;;;;;;2.80;2.10;;;25.30;96.10;;;;;;5062004;28;20772;-72
2023/07/26 11:55:39;;;;;;;2.47;2.20;;;25.40;94.80;;;;;;5061557;28;20425;-72
2023/07/26 11:58:08;;;;;;;3.13;2.20;;;24.90;95.00;;;;;;5063893;28;20404;-71
2023/07/26 12:00:35;;;;;;;2.50;1.70;;;24.20;94.60;;;;;;5060773;28;20432;-71
2023/07/26 12:03:02;;;;;;;2.70;2.00;;;23.70;95.00;;;;;;5061614;28;20447;-71
2023/07/26 12:05:28;;;;;;;2.60;2.00;;;22.60;97.20;;;;;;5061721;28;20401;-70
2023/07/26 12:07:56;;;;;;;3.60;2.53;;;22.30;97.10;;;;;;5062021;28;20918;-73
2023/07/26 12:10:40;;;;;;;2.27;2.07;;;22.10;98.10;;;;;;5064253;28;20244;-73
2023/07/26 12:13:17;;;;;;;2.40;2.20;;;22.60;96.70;;;;;;5055405;28;20423;-72
2023/07/26 12:16:00;;;;;;;3.83;2.77;;;23.50;95.50;;;;;;5058116;28;20408;-72
2023/07/26 12:18:26;;;;;;;2.83;2.57;;;23.70;95.20;;;;;;5058693;28;20414;-72
2023/07/26 12:21:07;;;;;;;3.30;2.70;;;24.50;93.70;;;;;;5064132;28;20978;-73
2023/07/26 12:23:53;;;;;;;3.60;2.73;;;26.00;92.20;;;;;;5058358;28;20465;-70
2023/07/26 12:26:30;;;;;;;4.53;2.43;;;26.70;90.80;;;;;;5064012;28;20438;-72
2023/07/26 12:28:57;;;;;;;2.73;1.93;;;26.50;89.50;;;;;;5066656;28;20401;-73
2023/07/26 12:31:24;;;;;;;2.70;2.07;;;26.30;90.90;;;;;;5063084;28;20478;-73
2023/07/26 12:34:04;;;;;;;3.60;2.40;;;25.00;91.60;;;;;;5064373;28;20900;-73
2023/07/26 12:36:37;;;;;;;3.63;2.30;;;24.10;92.10;;;;;;5062487;28;20409;-74
2023/07/26 12:39:07;;;;;;;3.50;2.50;;;23.00;92.30;;;;;;5067710;28;20388;-73
2023/07/26 12:41:40;;;;;;;4.80;3.10;;;22.80;93.30;;;;;;5064709;28;20840;-73
2023/07/26 12:44:06;;;;;;;3.50;3.13;;;22.20;93.30;;;;;;5059256;28;20502;-73